Time;durP1;ratioP1;P1;durP2;ratioP2;P2;SDS_P1;SDS_P2;PMS_P1;PMS_P2;Temp;Humidity;BMP_temperature;BMP_pressure;BME280_temperature;BME280_humidity;BME280_pressure;Samples;Min_cycle;Max_cycle;Signal;HPM_P1;HPM_P2
2023/08/30 00:01:11;;;;;;;4.25;3.95;;;;;;;;;;5033936;28;20021;-69
2023/08/30 00:03:36;;;;;;;6.18;4.35;;;;;;;;;;5033628;28;20041;-69
2023/08/30 00:06:03;;;;;;;4.93;4.43;;;;;;;;;;5033980;28;20032;-65
2023/08/30 00:08:29;;;;;;;4.68;4.25;;;;;;;;;;5037731;28;20029;-67
2023/08/30 00:10:56;;;;;;;5.35;4.15;;;;;;;;;;5036198;28;20033;-64
2023/08/30 00:13:21;;;;;;;4.85;4.45;;;;;;;;;;5020045;28;20116;-63
2023/08/30 00:15:47;;;;;;;4.47;4.10;;;;;;;;;;5037446;28;20473;-63
2023/08/30 00:18:12;;;;;;;4.45;4.05;;;;;;;;;;5020189;28;20353;-62
2023/08/30 00:20:37;;;;;;;4.80;4.40;;;;;;;;;;5037649;28;20022;-61
2023/08/30 00:23:03;;;;;;;5.38;4.72;;;;;;;;;;5035842;28;20065;-62
2023/08/30 00:25:29;;;;;;;5.68;5.18;;;;;;;;;;5036712;28;20033;-65
2023/08/30 00:27:55;;;;;;;5.97;4.78;;;;;;;;;;5037918;28;20030;-67
2023/08/30 00:30:20;;;;;;;7.38;5.53;;;;;;;;;;5037736;28;20025;-65
2023/08/30 00:32:45;;;;;;;5.90;4.97;;;;;;;;;;5035745;28;20029;-67
2023/08/30 00:35:11;;;;;;;9.45;7.03;;;;;;;;;;5036368;28;20031;-66
2023/08/30 00:37:36;;;;;;;9.25;6.80;;;;;;;;;;5035676;28;20396;-65
2023/08/30 00:40:02;;;;;;;6.20;5.68;;;;;;;;;;5037149;28;20033;-67
2023/08/30 00:42:27;;;;;;;8.55;7.13;;;;;;;;;;5035462;28;20088;-66
2023/08/30 00:44:53;;;;;;;7.78;6.22;;;;;;;;;;5037270;28;20026;-68
2023/08/30 00:47:18;;;;;;;8.73;6.80;;;;;;;;;;5037008;28;20032;-66
2023/08/30 00:49:44;;;;;;;8.85;7.07;;;;;;;;;;5036909;28;20421;-67
2023/08/30 00:52:09;;;;;;;8.63;7.60;;;;;;;;;;5036913;28;20057;-63
2023/08/30 00:54:35;;;;;;;8.32;7.15;;;;;;;;;;5036940;28;20088;-66
2023/08/30 00:57:01;;;;;;;10.27;6.55;;;;;;;;;;5035813;28;20029;-66
2023/08/30 00:59:27;;;;;;;10.35;6.93;;;;;;;;;;5035556;28;20076;-66
2023/08/30 01:01:54;;;;;;;8.73;7.32;;;;;;;;;;5035153;28;20477;-66
2023/08/30 01:04:20;;;;;;;6.57;5.93;;;;;;;;;;5036453;28;20033;-67
2023/08/30 01:06:45;;;;;;;7.00;6.30;;;;;;;;;;5036685;28;20033;-65
2023/08/30 01:09:11;;;;;;;8.75;6.97;;;;;;;;;;5035351;28;20401;-64
2023/08/30 01:11:43;;;;;;;7.35;6.65;;;;;;;;;;5036639;28;20029;-64
2023/08/30 01:14:11;;;;;;;7.40;6.70;;;;;;;;;;5036823;28;20037;-65
2023/08/30 01:16:37;;;;;;;8.32;6.72;;;;;;;;;;5035627;28;20063;-64
2023/08/30 01:19:23;;;;;;;7.18;6.10;;;;;;;;;;5034913;28;20033;-65
2023/08/30 01:22:04;;;;;;;8.73;7.70;;;;;;;;;;4985413;28;20643;-64
2023/08/30 01:24:37;;;;;;;8.82;7.72;;;;;;;;;;5036307;28;20029;-66
2023/08/30 01:27:12;;;;;;;8.45;7.15;;;;;;;;;;5036320;28;20033;-66
2023/08/30 01:29:39;;;;;;;7.00;6.28;;;;;;;;;;5036612;28;20044;-64
2023/08/30 01:32:05;;;;;;;7.57;6.13;;;;;;;;;;5034672;28;20026;-64
2023/08/30 01:34:31;;;;;;;6.78;6.07;;;;;;;;;;5036357;28;20111;-64
2023/08/30 01:37:06;;;;;;;6.70;6.03;;;;;;;;;;5035918;28;20037;-64
2023/08/30 01:39:33;;;;;;;8.38;7.15;;;;;;;;;;5034976;28;20057;-64
2023/08/30 01:42:00;;;;;;;7.50;6.47;;;;;;;;;;5034424;28;20362;-64
2023/08/30 01:44:29;;;;;;;7.93;6.18;;;;;;;;;;5036289;28;20052;-66
2023/08/30 01:46:55;;;;;;;7.53;5.95;;;;;;;;;;5035663;28;20044;-66
2023/08/30 01:49:21;;;;;;;7.75;5.93;;;;;;;;;;5034711;28;20108;-64
2023/08/30 01:51:46;;;;;;;8.45;6.43;;;;;;;;;;5035421;28;20103;-64
2023/08/30 01:54:16;;;;;;;7.15;6.43;;;;;;;;;;5035802;28;20373;-64
2023/08/30 01:56:41;;;;;;;10.15;6.50;;;;;;;;;;5035742;28;20040;-67
2023/08/30 01:59:07;;;;;;;7.72;6.40;;;;;;;;;;5034453;28;20033;-67
2023/08/30 02:01:32;;;;;;;9.82;6.72;;;;;;;;;;5034146;28;20036;-67
2023/08/30 02:04:00;;;;;;;8.45;6.53;;;;;;;;;;5034411;28;20492;-67
2023/08/30 02:06:35;;;;;;;7.13;5.40;;;;;;;;;;5035585;28;20038;-64
2023/08/30 02:09:04;;;;;;;7.13;6.43;;;;;;;;;;5034003;28;20071;-64
2023/08/30 02:11:35;;;;;;;6.72;5.65;;;;;;;;;;5033922;28;20029;-64
2023/08/30 02:14:00;;;;;;;6.63;5.88;;;;;;;;;;5033867;28;20176;-65
2023/08/30 02:16:27;;;;;;;6.75;5.75;;;;;;;;;;5034288;28;20056;-64
2023/08/30 02:18:53;;;;;;;9.32;6.50;;;;;;;;;;5016957;28;20041;-64
2023/08/30 02:21:18;;;;;;;6.20;5.60;;;;;;;;;;5034258;28;20544;-64
2023/08/30 02:23:49;;;;;;;6.00;5.25;;;;;;;;;;5035229;28;20014;-64
2023/08/30 02:26:14;;;;;;;6.28;5.57;;;;;;;;;;5033670;28;20060;-64
2023/08/30 02:28:40;;;;;;;6.75;5.53;;;;;;;;;;5017053;28;20033;-64
2023/08/30 02:31:05;;;;;;;5.68;5.18;;;;;;;;;;5033438;28;20021;-64
2023/08/30 02:33:30;;;;;;;5.82;5.30;;;;;;;;;;5035017;28;20037;-64
2023/08/30 02:35:56;;;;;;;5.57;5.00;;;;;;;;;;5034925;28;20029;-64
2023/08/30 02:38:23;;;;;;;7.07;6.38;;;;;;;;;;5035244;28;20040;-64
2023/08/30 02:40:48;;;;;;;7.32;5.70;;;;;;;;;;5033367;28;20031;-62
2023/08/30 02:43:15;;;;;;;5.97;5.38;;;;;;;;;;5033259;28;20037;-63
2023/08/30 02:45:41;;;;;;;5.97;5.18;;;;;;;;;;5035083;28;20116;-63
2023/08/30 02:48:06;;;;;;;5.38;4.88;;;;;;;;;;5034504;28;20029;-63
2023/08/30 02:50:31;;;;;;;5.80;5.22;;;;;;;;;;5033011;28;20083;-63
2023/08/30 02:52:57;;;;;;;5.30;4.85;;;;;;;;;;5035138;28;20503;-63
2023/08/30 02:55:22;;;;;;;6.20;5.07;;;;;;;;;;5033629;28;20385;-66
2023/08/30 02:57:47;;;;;;;6.20;5.00;;;;;;;;;;5033051;28;20084;-64
2023/08/30 03:00:14;;;;;;;6.03;4.72;;;;;;;;;;5034849;28;20109;-62
2023/08/30 03:02:39;;;;;;;5.78;5.15;;;;;;;;;;5032871;28;20116;-65
2023/08/30 03:05:05;;;;;;;7.40;5.15;;;;;;;;;;5034239;28;20457;-65
2023/08/30 03:07:30;;;;;;;6.68;5.15;;;;;;;;;;5032854;28;20104;-65
2023/08/30 03:09:56;;;;;;;6.40;5.57;;;;;;;;;;5032868;28;20473;-64
2023/08/30 03:12:21;;;;;;;7.03;5.90;;;;;;;;;;5032794;28;20025;-67
2023/08/30 03:14:47;;;;;;;7.35;5.72;;;;;;;;;;5033120;28;20029;-67
2023/08/30 03:17:12;;;;;;;6.05;5.43;;;;;;;;;;5034718;28;20064;-61
2023/08/30 03:19:38;;;;;;;6.90;5.50;;;;;;;;;;5032664;28;20441;-61
2023/08/30 03:22:03;;;;;;;7.45;5.82;;;;;;;;;;5033365;28;20458;-62
2023/08/30 03:24:29;;;;;;;8.40;6.63;;;;;;;;;;5034145;28;20022;-62
2023/08/30 03:26:54;;;;;;;6.43;5.75;;;;;;;;;;5034585;28;20029;-62
2023/08/30 03:29:20;;;;;;;7.63;5.85;;;;;;;;;;5034121;28;20034;-62
2023/08/30 03:31:47;;;;;;;6.13;5.22;;;;;;;;;;5034130;28;20033;-61
2023/08/30 03:34:12;;;;;;;6.38;5.53;;;;;;;;;;5032786;28;20485;-61
2023/08/30 03:36:39;;;;;;;5.70;5.18;;;;;;;;;;5032462;28;20033;-61
2023/08/30 03:39:04;;;;;;;5.82;5.22;;;;;;;;;;5032692;28;20037;-65
2023/08/30 03:41:30;;;;;;;6.53;5.90;;;;;;;;;;5033340;28;20033;-68
2023/08/30 03:43:55;;;;;;;6.53;5.85;;;;;;;;;;5032486;28;20025;-68
2023/08/30 03:46:21;;;;;;;9.43;6.22;;;;;;;;;;5033574;28;20018;-68
2023/08/30 03:48:46;;;;;;;7.10;6.32;;;;;;;;;;5032371;28;20044;-67
2023/08/30 03:51:11;;;;;;;8.70;6.22;;;;;;;;;;5032019;28;20045;-62
2023/08/30 03:53:37;;;;;;;9.82;6.60;;;;;;;;;;5032613;28;20041;-61
2023/08/30 03:56:03;;;;;;;8.90;6.18;;;;;;;;;;5032241;28;20038;-61
2023/08/30 03:58:28;;;;;;;7.25;6.07;;;;;;;;;;5033600;28;20087;-61
2023/08/30 04:00:54;;;;;;;8.77;6.28;;;;;;;;;;5033376;28;20041;-62
2023/08/30 04:03:19;;;;;;;9.38;6.47;;;;;;;;;;5033346;28;20546;-61
2023/08/30 04:05:45;;;;;;;7.60;6.28;;;;;;;;;;5032990;28;20044;-61
2023/08/30 04:08:10;;;;;;;8.77;6.55;;;;;;;;;;5033648;28;20037;-61
2023/08/30 04:10:40;;;;;;;9.80;7.32;;;;;;;;;;5032133;28;20420;-62
2023/08/30 04:13:05;;;;;;;10.33;7.27;;;;;;;;;;5033448;28;20065;-62
2023/08/30 04:15:34;;;;;;;11.18;7.05;;;;;;;;;;5033668;28;20280;-62
2023/08/30 04:18:00;;;;;;;12.18;8.05;;;;;;;;;;5032727;28;20453;-62
2023/08/30 04:20:26;;;;;;;12.65;8.05;;;;;;;;;;5032430;28;20121;-61
2023/08/30 04:22:53;;;;;;;11.07;7.47;;;;;;;;;;5031963;28;20440;-61
2023/08/30 04:25:18;;;;;;;10.27;7.90;;;;;;;;;;5033550;28;20461;-61
2023/08/30 04:27:43;;;;;;;10.52;7.25;;;;;;;;;;5032018;28;20021;-61
2023/08/30 04:30:10;;;;;;;9.57;7.05;;;;;;;;;;5032334;28;20465;-61
2023/08/30 04:32:35;;;;;;;8.90;7.32;;;;;;;;;;5032074;28;20021;-59
2023/08/30 04:35:02;;;;;;;8.93;7.18;;;;;;;;;;5031950;28;20052;-65
2023/08/30 04:37:30;;;;;;;10.75;7.47;;;;;;;;;;5015730;28;20041;-63
2023/08/30 04:39:56;;;;;;;9.25;6.82;;;;;;;;;;5032591;28;20029;-64
2023/08/30 04:42:21;;;;;;;10.52;7.32;;;;;;;;;;5032428;28;20474;-65
2023/08/30 04:44:47;;;;;;;9.15;6.32;;;;;;;;;;5032357;28;20034;-65
2023/08/30 04:47:12;;;;;;;9.48;7.60;;;;;;;;;;5031800;28;20484;-67
2023/08/30 04:49:38;;;;;;;8.52;6.95;;;;;;;;;;5031531;28;20037;-64
2023/08/30 04:52:04;;;;;;;10.13;6.95;;;;;;;;;;5032786;28;20018;-62
2023/08/30 04:54:29;;;;;;;7.20;6.05;;;;;;;;;;5035715;28;20034;-62
2023/08/30 04:56:55;;;;;;;7.53;6.72;;;;;;;;;;5035792;28;20025;-61
2023/08/30 04:59:21;;;;;;;7.03;6.32;;;;;;;;;;5035325;28;20091;-65
2023/08/30 05:01:48;;;;;;;8.57;6.53;;;;;;;;;;5035156;28;20365;-66
2023/08/30 05:04:15;;;;;;;7.45;6.13;;;;;;;;;;5035726;28;20029;-66
2023/08/30 05:06:40;;;;;;;9.80;5.97;;;;;;;;;;5035471;28;20021;-64
2023/08/30 05:09:06;;;;;;;9.32;6.20;;;;;;;;;;5035341;28;20029;-61
2023/08/30 05:11:32;;;;;;;7.07;5.90;;;;;;;;;;5035388;28;20477;-61
2023/08/30 05:14:00;;;;;;;7.45;6.00;;;;;;;;;;5035703;28;20036;-61
2023/08/30 05:16:25;;;;;;;7.13;6.45;;;;;;;;;;5034697;28;20397;-61
2023/08/30 05:18:58;;;;;;;7.70;6.18;;;;;;;;;;5035562;28;20033;-60
2023/08/30 05:21:24;;;;;;;7.03;5.65;;;;;;;;;;5035182;28;20025;-60
2023/08/30 05:23:55;;;;;;;8.77;6.93;;;;;;;;;;5009186;28;20038;-64
2023/08/30 05:26:20;;;;;;;8.40;7.50;;;;;;;;;;5013723;28;20054;-63
2023/08/30 05:28:49;;;;;;;12.63;8.15;;;;;;;;;;5009591;28;20026;-63
2023/08/30 05:31:14;;;;;;;15.95;8.98;;;;;;;;;;4979364;28;20045;-64
2023/08/30 05:33:59;;;;;;;14.35;9.25;;;;;;;;;;4995351;28;20506;-64
2023/08/30 05:36:47;;;;;;;12.43;9.20;;;;;;;;;;4991752;28;20038;-64
2023/08/30 05:39:38;;;;;;;7.65;6.55;;;;;;;;;;4968341;28;20069;-64
2023/08/30 05:42:04;;;;;;;8.00;6.63;;;;;;;;;;4995178;28;20081;-64
2023/08/30 05:44:29;;;;;;;7.40;6.68;;;;;;;;;;4995184;28;20446;-63
2023/08/30 05:46:55;;;;;;;9.40;6.90;;;;;;;;;;4994935;28;20418;-62
2023/08/30 05:49:20;;;;;;;9.27;6.45;;;;;;;;;;4995040;28;20030;-61
2023/08/30 05:51:47;;;;;;;7.57;6.82;;;;;;;;;;4993826;28;20383;-62
2023/08/30 05:54:12;;;;;;;8.50;6.43;;;;;;;;;;4993977;28;20085;-62
2023/08/30 05:56:38;;;;;;;7.05;6.05;;;;;;;;;;4993904;28;20045;-62
2023/08/30 05:59:03;;;;;;;8.93;6.57;;;;;;;;;;4995224;28;20117;-61
2023/08/30 06:01:28;;;;;;;8.90;6.30;;;;;;;;;;4994986;28;20065;-61
2023/08/30 06:03:54;;;;;;;7.93;6.30;;;;;;;;;;4994213;28;20038;-61
2023/08/30 06:06:20;;;;;;;6.70;5.70;;;;;;;;;;4994916;28;20022;-64
2023/08/30 06:08:45;;;;;;;6.75;5.82;;;;;;;;;;4994891;28;20117;-66
2023/08/30 06:11:11;;;;;;;6.28;5.07;;;;;;;;;;4993578;28;20105;-65
2023/08/30 06:13:36;;;;;;;5.60;5.05;;;;;;;;;;4995022;28;20038;-65
2023/08/30 06:16:02;;;;;;;6.43;5.07;;;;;;;;;;4995683;28;20026;-65
2023/08/30 06:18:31;;;;;;;6.30;5.13;;;;;;;;;;4995378;28;20524;-65
2023/08/30 06:20:57;;;;;;;5.20;4.70;;;;;;;;;;4995132;28;20045;-65
2023/08/30 06:23:22;;;;;;;5.70;5.07;;;;;;;;;;4994792;28;20048;-65
2023/08/30 06:25:57;;;;;;;5.60;5.10;;;;;;;;;;4993866;28;20030;-65
2023/08/30 06:28:23;;;;;;;5.80;5.10;;;;;;;;;;4993610;28;20372;-65
2023/08/30 06:30:48;;;;;;;5.60;5.03;;;;;;;;;;4994699;28;20085;-63
2023/08/30 06:33:13;;;;;;;5.38;4.85;;;;;;;;;;4993613;28;20041;-65
2023/08/30 06:35:39;;;;;;;5.78;5.15;;;;;;;;;;4993317;28;20022;-65
2023/08/30 06:38:05;;;;;;;6.35;5.75;;;;;;;;;;4994666;28;20478;-65
2023/08/30 06:40:30;;;;;;;6.60;5.93;;;;;;;;;;4994491;28;20026;-65
2023/08/30 06:42:56;;;;;;;6.78;6.07;;;;;;;;;;4994368;28;20041;-65
2023/08/30 06:45:22;;;;;;;6.05;5.35;;;;;;;;;;4994915;28;20077;-65
2023/08/30 06:47:48;;;;;;;5.45;4.93;;;;;;;;;;4993621;28;20525;-66
2023/08/30 06:50:14;;;;;;;7.20;4.97;;;;;;;;;;4994673;28;20121;-67
2023/08/30 06:52:39;;;;;;;6.22;5.35;;;;;;;;;;4994707;28;20169;-65
2023/08/30 06:55:04;;;;;;;5.82;5.18;;;;;;;;;;4993579;28;20045;-65
2023/08/30 06:57:30;;;;;;;5.00;4.28;;;;;;;;;;4994615;28;20030;-65
2023/08/30 06:59:55;;;;;;;6.45;5.60;;;;;;;;;;4993102;28;20077;-65
2023/08/30 07:02:20;;;;;;;10.25;6.53;;;;;;;;;;4992985;28;20030;-65
2023/08/30 07:04:46;;;;;;;9.68;6.35;;;;;;;;;;4994726;28;20471;-65
2023/08/30 07:07:12;;;;;;;8.50;6.55;;;;;;;;;;4994727;28;20463;-65
2023/08/30 07:09:37;;;;;;;8.48;6.75;;;;;;;;;;4994611;28;20057;-65
2023/08/30 07:12:03;;;;;;;7.53;6.57;;;;;;;;;;4994603;28;20446;-65
2023/08/30 07:14:28;;;;;;;7.45;5.60;;;;;;;;;;4994524;28;20073;-65
2023/08/30 07:16:53;;;;;;;7.03;5.47;;;;;;;;;;4993563;28;20109;-65
2023/08/30 07:19:19;;;;;;;8.52;6.28;;;;;;;;;;4993115;28;20069;-64
2023/08/30 07:21:44;;;;;;;7.18;6.05;;;;;;;;;;4993015;28;20030;-65
2023/08/30 07:24:10;;;;;;;6.05;5.43;;;;;;;;;;4994304;28;20165;-65
2023/08/30 07:26:35;;;;;;;5.95;5.28;;;;;;;;;;4994138;28;20367;-65
2023/08/30 07:29:01;;;;;;;6.65;4.97;;;;;;;;;;4994292;28;20027;-65
2023/08/30 07:31:27;;;;;;;5.72;5.13;;;;;;;;;;4994169;28;20038;-65
2023/08/30 07:33:52;;;;;;;5.38;4.85;;;;;;;;;;4994272;28;20121;-65
2023/08/30 07:36:17;;;;;;;6.93;5.22;;;;;;;;;;4994022;28;20413;-64
2023/08/30 07:38:43;;;;;;;6.78;5.72;;;;;;;;;;4993771;28;20064;-64
2023/08/30 07:41:09;;;;;;;5.78;5.28;;;;;;;;;;4993742;28;20022;-64
2023/08/30 07:43:34;;;;;;;8.68;6.22;;;;;;;;;;4993587;28;20038;-65
2023/08/30 07:46:00;;;;;;;8.15;5.95;;;;;;;;;;4993821;28;20073;-65
2023/08/30 07:48:26;;;;;;;7.60;5.63;;;;;;;;;;4992627;28;20030;-64
2023/08/30 07:50:51;;;;;;;9.38;5.72;;;;;;;;;;5017258;28;20091;-65
2023/08/30 07:53:17;;;;;;;7.03;6.00;;;;;;;;;;5033174;28;20038;-65
2023/08/30 07:55:42;;;;;;;7.72;6.35;;;;;;;;;;5015543;28;20029;-65
2023/08/30 07:58:10;;;;;;;8.27;6.13;;;;;;;;;;5033230;28;20051;-64
2023/08/30 08:00:35;;;;;;;8.82;6.32;;;;;;;;;;5033261;28;20025;-64
2023/08/30 08:03:00;;;;;;;8.98;6.30;;;;;;;;;;5032976;28;20033;-64
2023/08/30 08:05:25;;;;;;;9.10;6.20;;;;;;;;;;5033182;28;20021;-64
2023/08/30 08:07:51;;;;;;;7.80;5.93;;;;;;;;;;5033048;28;20030;-65
2023/08/30 08:10:17;;;;;;;5.47;4.85;;;;;;;;;;5033171;28;20034;-65
2023/08/30 08:12:42;;;;;;;7.18;5.47;;;;;;;;;;5015295;28;20028;-65
2023/08/30 08:15:08;;;;;;;7.65;5.25;;;;;;;;;;5032750;28;20037;-65
2023/08/30 08:17:33;;;;;;;6.47;4.63;;;;;;;;;;5032925;28;20032;-65
2023/08/30 08:19:58;;;;;;;5.38;4.88;;;;;;;;;;5033041;28;20414;-65
2023/08/30 08:22:24;;;;;;;6.70;4.95;;;;;;;;;;5032464;28;20033;-64
2023/08/30 08:24:51;;;;;;;5.57;4.97;;;;;;;;;;5015247;28;20021;-64
2023/08/30 08:27:16;;;;;;;5.22;4.28;;;;;;;;;;5033706;28;20021;-64
2023/08/30 08:29:42;;;;;;;6.18;4.80;;;;;;;;;;5002696;28;20410;-64
2023/08/30 08:32:08;;;;;;;6.68;4.82;;;;;;;;;;5036762;28;20040;-64
2023/08/30 08:34:33;;;;;;;5.20;4.25;;;;;;;;;;5018993;28;20106;-65
2023/08/30 08:36:59;;;;;;;4.63;4.22;;;;;;;;;;5018817;28;20513;-65
2023/08/30 08:39:25;;;;;;;7.55;4.78;;;;;;;;;;5030017;28;20381;-65
2023/08/30 08:41:52;;;;;;;6.75;5.35;;;;;;;;;;5016789;28;20057;-64
2023/08/30 08:44:18;;;;;;;6.95;5.00;;;;;;;;;;4999008;28;20088;-64
2023/08/30 08:46:44;;;;;;;6.70;5.13;;;;;;;;;;4999215;28;20022;-64
2023/08/30 08:49:11;;;;;;;6.88;4.80;;;;;;;;;;4998945;28;20352;-64
2023/08/30 08:51:36;;;;;;;7.63;4.88;;;;;;;;;;5016407;28;20030;-65
2023/08/30 08:54:03;;;;;;;5.68;5.03;;;;;;;;;;5027371;28;20038;-61
2023/08/30 08:56:29;;;;;;;5.50;4.88;;;;;;;;;;5016538;28;20045;-61
2023/08/30 08:58:55;;;;;;;4.85;4.38;;;;;;;;;;5016483;28;20038;-61
2023/08/30 09:01:20;;;;;;;5.10;4.60;;;;;;;;;;5016670;28;20026;-65
2023/08/30 09:03:46;;;;;;;5.13;4.25;;;;;;;;;;5016263;28;20033;-65
2023/08/30 09:06:12;;;;;;;5.10;4.38;;;;;;;;;;5016776;28;20037;-65
2023/08/30 09:08:37;;;;;;;6.35;4.65;;;;;;;;;;5016895;28;20037;-65
2023/08/30 09:11:03;;;;;;;5.20;4.43;;;;;;;;;;5016584;28;20441;-65
2023/08/30 09:13:30;;;;;;;5.57;4.55;;;;;;;;;;4999207;28;20120;-61
2023/08/30 09:15:56;;;;;;;7.45;5.13;;;;;;;;;;5016981;28;20065;-61
2023/08/30 09:18:21;;;;;;;5.53;4.22;;;;;;;;;;5016906;28;20431;-61
2023/08/30 09:20:47;;;;;;;6.05;3.85;;;;;;;;;;5016685;28;20030;-61
2023/08/30 09:23:30;;;;;;;4.90;4.32;;;;;;;;;;5016544;28;20425;-61
2023/08/30 09:25:56;;;;;;;26.45;6.00;;;;;;;;;;4999591;28;20087;-61
2023/08/30 09:28:21;;;;;;;4.78;3.88;;;;;;;;;;5016512;28;20034;-61
2023/08/30 09:30:50;;;;;;;6.57;3.45;;;;;;;;;;5016223;28;20036;-61
2023/08/30 09:33:20;;;;;;;4.55;3.38;;;;;;;;;;5018806;28;20038;-61
2023/08/30 09:35:45;;;;;;;4.13;3.55;;;;;;;;;;5032118;28;20053;-61
2023/08/30 09:38:29;;;;;;;3.88;3.40;;;;;;;;;;5022621;28;20496;-61
2023/08/30 09:41:05;;;;;;;4.35;3.03;;;;;;;;;;5015941;28;20053;-61
2023/08/30 09:43:30;;;;;;;4.72;2.65;;;;;;;;;;5016659;28;20030;-61
2023/08/30 09:45:57;;;;;;;2.72;2.50;;;;;;;;;;5016126;28;20421;-61
2023/08/30 09:48:23;;;;;;;3.60;2.70;;;;;;;;;;5016084;28;20041;-60
2023/08/30 09:50:52;;;;;;;7.50;2.85;;;;;;;;;;5016314;28;20049;-60
2023/08/30 09:53:19;;;;;;;4.15;2.88;;;;;;;;;;5016108;28;20478;-60
2023/08/30 09:55:46;;;;;;;8.55;2.83;;;;;;;;;;5015670;28;20450;-60
2023/08/30 09:58:11;;;;;;;7.43;2.88;;;;;;;;;;5016043;28;20053;-60
2023/08/30 10:00:37;;;;;;;4.90;2.83;;;;;;;;;;5015883;28;20476;-60
2023/08/30 10:03:03;;;;;;;3.10;2.80;;;;;;;;;;5015834;28;20026;-60
2023/08/30 10:05:29;;;;;;;4.80;3.47;;;;;;;;;;5016027;28;20030;-60
2023/08/30 10:07:55;;;;;;;10.82;3.58;;;;;;;;;;5016075;28;20014;-60
2023/08/30 10:10:21;;;;;;;7.40;3.50;;;;;;;;;;5015140;28;20033;-60
2023/08/30 10:12:47;;;;;;;11.40;4.68;;;;;;;;;;5029505;28;20104;-60
2023/08/30 10:15:12;;;;;;;4.55;2.80;;;;;;;;;;5035588;28;20061;-61
2023/08/30 10:17:41;;;;;;;3.10;2.88;;;;;;;;;;5018038;28;20033;-61
2023/08/30 10:20:06;;;;;;;4.63;2.30;;;;;;;;;;5015675;28;20021;-60
2023/08/30 10:22:34;;;;;;;3.80;2.10;;;;;;;;;;5024149;28;20124;-60
2023/08/30 10:25:02;;;;;;;2.28;2.08;;;;;;;;;;4997643;28;20029;-60
2023/08/30 10:27:28;;;;;;;6.50;2.38;;;;;;;;;;5026477;28;20032;-60
2023/08/30 10:29:54;;;;;;;3.08;2.22;;;;;;;;;;4997960;28;20038;-60
2023/08/30 10:32:21;;;;;;;4.03;2.42;;;;;;;;;;5015056;28;20025;-60
2023/08/30 10:34:48;;;;;;;2.38;2.17;;;;;;;;;;4999414;28;20109;-60
2023/08/30 10:37:13;;;;;;;2.53;2.30;;;;;;;;;;5026110;28;20030;-60
2023/08/30 10:39:40;;;;;;;2.83;1.95;;;;;;;;;;4997448;28;20676;-60
2023/08/30 10:42:09;;;;;;;3.47;2.40;;;;;;;;;;4997864;28;20033;-62
2023/08/30 10:44:46;;;;;;;2.53;1.83;;;;;;;;;;4989129;28;20033;-62
2023/08/30 10:47:17;;;;;;;1.80;1.70;;;;;;;;;;5031326;28;20466;-62
2023/08/30 10:49:43;;;;;;;3.30;2.05;;;;;;;;;;5031475;28;20501;-62
2023/08/30 10:52:11;;;;;;;2.60;2.40;;;;;;;;;;5025604;28;20041;-60
2023/08/30 10:54:38;;;;;;;2.05;1.92;;;;;;;;;;5015074;28;20025;-60
2023/08/30 10:57:04;;;;;;;2.03;1.77;;;;;;;;;;5014771;28;20116;-60
2023/08/30 10:59:29;;;;;;;2.78;2.30;;;;;;;;;;5014813;28;20109;-60
2023/08/30 11:01:55;;;;;;;2.70;1.83;;;;;;;;;;4997434;28;20029;-60
2023/08/30 11:04:22;;;;;;;2.70;1.40;;;;;;;;;;5021238;28;20029;-60
2023/08/30 11:06:49;;;;;;;1.67;1.27;;;;;;;;;;5004732;28;20041;-60
2023/08/30 11:09:18;;;;;;;1.48;1.38;;;;;;;;;;5015015;28;20037;-60
2023/08/30 11:11:45;;;;;;;2.35;1.60;;;;;;;;;;5013922;28;20022;-60
2023/08/30 11:14:10;;;;;;;1.77;1.48;;;;;;;;;;5013906;28;20021;-60
2023/08/30 11:16:36;;;;;;;98.60;10.15;;;;;;;;;;5014165;28;20030;-60
2023/08/30 11:19:05;;;;;;;14.85;3.40;;;;;;;;;;5013588;28;20234;-60
2023/08/30 11:21:32;;;;;;;2.92;2.17;;;;;;;;;;5013654;28;20037;-60
2023/08/30 11:23:57;;;;;;;3.80;2.00;;;;;;;;;;5013348;28;20026;-60
2023/08/30 11:26:22;;;;;;;2.10;1.90;;;;;;;;;;5013284;28;20025;-60
2023/08/30 11:28:49;;;;;;;2.13;1.63;;;;;;;;;;5013807;28;20033;-62
2023/08/30 11:31:27;;;;;;;1.88;1.70;;;;;;;;;;5013686;28;20021;-62
2023/08/30 11:33:56;;;;;;;2.10;1.67;;;;;;;;;;4996075;28;20026;-62
2023/08/30 11:36:24;;;;;;;4.30;1.73;;;;;;;;;;5013488;28;20033;-62
2023/08/30 11:38:50;;;;;;;2.47;1.65;;;;;;;;;;4995704;28;20034;-62
2023/08/30 11:41:16;;;;;;;2.03;1.58;;;;;;;;;;5013562;28;20038;-62
2023/08/30 11:43:41;;;;;;;2.85;2.15;;;;;;;;;;5013585;28;20072;-63
2023/08/30 11:46:07;;;;;;;2.95;1.70;;;;;;;;;;5013595;28;20041;-62
2023/08/30 11:48:33;;;;;;;2.03;1.40;;;;;;;;;;5013507;28;20029;-62
2023/08/30 11:50:59;;;;;;;1.92;1.40;;;;;;;;;;4995889;28;20395;-62
2023/08/30 11:53:24;;;;;;;2.53;1.38;;;;;;;;;;4995739;28;20060;-63
2023/08/30 11:55:50;;;;;;;2.25;1.50;;;;;;;;;;5013025;28;20049;-62
2023/08/30 11:58:17;;;;;;;2.28;1.23;;;;;;;;;;4996105;28;20088;-64
2023/08/30 12:00:43;;;;;;;1.42;1.33;;;;;;;;;;4995893;28;20394;-64
2023/08/30 12:03:08;;;;;;;1.65;1.30;;;;;;;;;;5015493;28;20033;-64
2023/08/30 12:05:35;;;;;;;3.30;1.30;;;;;;;;;;5017436;28;20033;-65
2023/08/30 12:08:00;;;;;;;2.58;2.00;;;;;;;;;;5017478;28;20018;-65
2023/08/30 12:10:28;;;;;;;2.67;1.30;;;;;;;;;;4999906;28;20732;-65
2023/08/30 12:12:53;;;;;;;2.00;1.25;;;;;;;;;;4999669;28;20545;-63
2023/08/30 12:15:22;;;;;;;2.95;1.30;;;;;;;;;;5016988;28;20057;-60
2023/08/30 12:17:47;;;;;;;1.92;1.13;;;;;;;;;;4999202;28;20033;-60
2023/08/30 12:20:17;;;;;;;1.58;1.08;;;;;;;;;;5016884;28;20493;-60
2023/08/30 12:22:43;;;;;;;1.55;1.08;;;;;;;;;;5016580;28;20034;-60
2023/08/30 12:25:18;;;;;;;1.08;1.00;;;;;;;;;;5016894;28;20052;-60
2023/08/30 12:27:43;;;;;;;2.05;1.20;;;;;;;;;;5017404;28;20053;-60
2023/08/30 12:30:09;;;;;;;2.35;1.50;;;;;;;;;;5017131;28;20508;-60
2023/08/30 12:32:34;;;;;;;5.10;2.28;;;;;;;;;;5017067;28;20072;-60
2023/08/30 12:35:00;;;;;;;12.05;3.10;;;;;;;;;;4999452;28;20044;-60
2023/08/30 12:37:25;;;;;;;11.90;3.30;;;;;;;;;;5016559;28;20013;-60
2023/08/30 12:39:51;;;;;;;4.30;1.27;;;;;;;;;;5016702;28;20048;-60
2023/08/30 12:42:17;;;;;;;2.72;1.58;;;;;;;;;;5016645;28;20529;-60
2023/08/30 12:44:42;;;;;;;1.60;1.40;;;;;;;;;;5016724;28;20109;-60
2023/08/30 12:47:08;;;;;;;621.42;147.63;;;;;;;;;;5016752;28;20006;-60
2023/08/30 12:49:34;;;;;;;33.20;10.98;;;;;;;;;;4999333;28;20045;-60
2023/08/30 12:51:59;;;;;;;12.82;3.95;;;;;;;;;;5016640;28;20026;-60
2023/08/30 12:54:24;;;;;;;13.75;3.28;;;;;;;;;;4999360;28;20056;-60
2023/08/30 12:56:50;;;;;;;3.80;1.40;;;;;;;;;;5016977;28;20403;-60
2023/08/30 12:59:22;;;;;;;2.65;1.38;;;;;;;;;;5017103;28;20034;-60
2023/08/30 13:01:48;;;;;;;1.77;1.33;;;;;;;;;;5016905;28;20041;-60
2023/08/30 13:04:13;;;;;;;1.33;1.23;;;;;;;;;;5001681;28;20033;-60
2023/08/30 13:06:38;;;;;;;1.48;1.33;;;;;;;;;;5018823;28;20021;-60
2023/08/30 13:09:04;;;;;;;1.52;1.40;;;;;;;;;;5017156;28;20112;-60
2023/08/30 13:11:32;;;;;;;1.65;1.27;;;;;;;;;;5016577;28;20484;-60
2023/08/30 13:13:57;;;;;;;2.40;1.50;;;;;;;;;;5016808;28;20041;-60
2023/08/30 13:16:23;;;;;;;6.03;1.95;;;;;;;;;;5006928;28;20362;-60
2023/08/30 13:18:48;;;;;;;32.95;9.07;;;;;;;;;;5036209;28;20167;-60
2023/08/30 13:21:14;;;;;;;2.80;2.53;;;;;;;;;;5018827;28;20084;-60
2023/08/30 13:23:39;;;;;;;8.38;3.60;;;;;;;;;;5018612;28;20477;-60
2023/08/30 13:26:04;;;;;;;9.60;4.00;;;;;;;;;;5036372;28;20036;-60
2023/08/30 13:28:30;;;;;;;5.40;2.53;;;;;;;;;;5036111;28;20468;-60
2023/08/30 13:30:55;;;;;;;1.58;1.48;;;;;;;;;;5015943;28;20024;-60
2023/08/30 13:33:21;;;;;;;2.03;1.92;;;;;;;;;;4999127;28;20057;-59
2023/08/30 13:35:51;;;;;;;2.20;1.50;;;;;;;;;;5016206;28;20030;-60
2023/08/30 13:38:16;;;;;;;1.63;1.30;;;;;;;;;;4999246;28;20462;-60
2023/08/30 13:40:41;;;;;;;1.65;1.45;;;;;;;;;;5016096;28;20034;-60
2023/08/30 13:43:07;;;;;;;1.50;1.40;;;;;;;;;;5015289;28;20125;-60
2023/08/30 13:45:32;;;;;;;2.20;1.50;;;;;;;;;;5016279;28;20030;-60
2023/08/30 13:47:58;;;;;;;2.20;1.38;;;;;;;;;;5016465;28;20030;-59
2023/08/30 13:50:23;;;;;;;3.08;1.42;;;;;;;;;;5015685;28;20129;-60
2023/08/30 13:52:48;;;;;;;1.52;1.42;;;;;;;;;;5015835;28;20049;-60
2023/08/30 13:55:14;;;;;;;27.13;3.92;;;;;;;;;;4982048;28;20481;-60
2023/08/30 13:57:39;;;;;;;10.63;3.22;;;;;;;;;;5015730;28;20022;-59
2023/08/30 14:00:09;;;;;;;11.75;3.90;;;;;;;;;;5015725;28;20462;-59
2023/08/30 14:02:35;;;;;;;3.88;1.42;;;;;;;;;;5016142;28;20037;-59
2023/08/30 14:05:00;;;;;;;1.58;1.48;;;;;;;;;;4998676;28;20061;-59
2023/08/30 14:07:25;;;;;;;1.45;1.17;;;;;;;;;;5015588;28;20107;-60
2023/08/30 14:09:51;;;;;;;12.13;3.90;;;;;;;;;;4998216;28;20038;-59
2023/08/30 14:12:17;;;;;;;3.80;1.60;;;;;;;;;;5016016;28;20108;-59
2023/08/30 14:14:42;;;;;;;2.17;1.73;;;;;;;;;;5015420;28;20053;-59
2023/08/30 14:17:07;;;;;;;2.78;1.48;;;;;;;;;;4998112;28;20434;-59
2023/08/30 14:19:35;;;;;;;1.80;1.70;;;;;;;;;;5015347;28;20494;-59
2023/08/30 14:22:03;;;;;;;3.78;1.80;;;;;;;;;;4998064;28;20030;-59
2023/08/30 14:24:28;;;;;;;1.75;1.65;;;;;;;;;;5015245;28;20113;-60
2023/08/30 14:26:54;;;;;;;1.70;1.50;;;;;;;;;;5015170;28;20060;-60
2023/08/30 14:29:21;;;;;;;1.65;1.55;;;;;;;;;;5015184;28;20113;-60
2023/08/30 14:31:46;;;;;;;4.45;1.40;;;;;;;;;;4997924;28;20084;-60
2023/08/30 14:34:11;;;;;;;1.75;1.20;;;;;;;;;;5015064;28;20089;-60
2023/08/30 14:36:37;;;;;;;1.50;1.40;;;;;;;;;;5015004;28;20065;-60